sensor_id;sensor_type;location;lat;lon;timestamp;P1;durP1;ratioP1;P2;durP2;ratioP2
7375;SDS011;3728;42.266;24.944;2024-01-06T00:01:20;32.50;;;18.47;;
7375;SDS011;3728;42.266;24.944;2024-01-06T00:03:47;33.50;;;15.33;;
7375;SDS011;3728;42.266;24.944;2024-01-06T00:06:14;26.07;;;12.33;;
7375;SDS011;3728;42.266;24.944;2024-01-06T00:08:42;20.73;;;11.23;;
7375;SDS011;3728;42.266;24.944;2024-01-06T00:11:09;21.00;;;11.60;;
7375;SDS011;3728;42.266;24.944;2024-01-06T00:13:37;18.20;;;11.13;;
7375;SDS011;3728;42.266;24.944;2024-01-06T00:16:04;17.93;;;10.80;;
7375;SDS011;3728;42.266;24.944;2024-01-06T00:18:32;20.57;;;11.60;;
7375;SDS011;3728;42.266;24.944;2024-01-06T00:20:59;25.60;;;12.43;;
7375;SDS011;3728;42.266;24.944;2024-01-06T00:23:27;24.40;;;14.37;;
7375;SDS011;3728;42.266;24.944;2024-01-06T00:25:54;18.63;;;12.00;;
7375;SDS011;3728;42.266;24.944;2024-01-06T00:28:21;18.93;;;12.10;;
7375;SDS011;3728;42.266;24.944;2024-01-06T00:30:49;22.33;;;13.47;;
7375;SDS011;3728;42.266;24.944;2024-01-06T00:33:16;19.33;;;13.30;;
7375;SDS011;3728;42.266;24.944;2024-01-06T00:35:43;21.57;;;13.67;;
7375;SDS011;3728;42.266;24.944;2024-01-06T00:38:12;24.43;;;13.60;;
7375;SDS011;3728;42.266;24.944;2024-01-06T00:40:39;24.53;;;15.07;;
7375;SDS011;3728;42.266;24.944;2024-01-06T00:43:06;25.10;;;15.00;;
7375;SDS011;3728;42.266;24.944;2024-01-06T00:45:35;24.03;;;14.83;;
7375;SDS011;3728;42.266;24.944;2024-01-06T00:48:03;22.43;;;15.33;;
7375;SDS011;3728;42.266;24.944;2024-01-06T00:50:31;21.87;;;15.00;;
7375;SDS011;3728;42.266;24.944;2024-01-06T00:52:59;21.67;;;14.47;;
7375;SDS011;3728;42.266;24.944;2024-01-06T00:55:26;18.00;;;12.73;;
7375;SDS011;3728;42.266;24.944;2024-01-06T00:57:54;24.03;;;14.83;;
7375;SDS011;3728;42.266;24.944;2024-01-06T01:00:21;35.77;;;17.70;;
7375;SDS011;3728;42.266;24.944;2024-01-06T01:02:49;31.83;;;16.17;;
7375;SDS011;3728;42.266;24.944;2024-01-06T01:05:16;35.20;;;14.47;;
7375;SDS011;3728;42.266;24.944;2024-01-06T01:07:44;26.60;;;13.83;;
7375;SDS011;3728;42.266;24.944;2024-01-06T01:10:13;22.93;;;13.33;;
7375;SDS011;3728;42.266;24.944;2024-01-06T01:12:40;24.90;;;14.10;;
7375;SDS011;3728;42.266;24.944;2024-01-06T01:15:08;22.80;;;13.83;;
7375;SDS011;3728;42.266;24.944;2024-01-06T01:17:35;24.57;;;13.10;;
7375;SDS011;3728;42.266;24.944;2024-01-06T01:20:04;20.17;;;11.80;;
7375;SDS011;3728;42.266;24.944;2024-01-06T01:22:32;20.20;;;13.30;;
7375;SDS011;3728;42.266;24.944;2024-01-06T01:24:59;18.93;;;12.57;;
7375;SDS011;3728;42.266;24.944;2024-01-06T01:27:31;20.50;;;11.73;;
7375;SDS011;3728;42.266;24.944;2024-01-06T01:29:59;17.73;;;11.97;;
7375;SDS011;3728;42.266;24.944;2024-01-06T01:32:26;21.63;;;11.17;;
7375;SDS011;3728;42.266;24.944;2024-01-06T01:34:54;18.53;;;12.47;;
7375;SDS011;3728;42.266;24.944;2024-01-06T01:37:21;17.93;;;11.87;;
7375;SDS011;3728;42.266;24.944;2024-01-06T01:39:48;20.30;;;12.67;;
7375;SDS011;3728;42.266;24.944;2024-01-06T01:42:15;19.13;;;11.87;;
7375;SDS011;3728;42.266;24.944;2024-01-06T01:44:43;20.27;;;13.17;;
7375;SDS011;3728;42.266;24.944;2024-01-06T01:47:10;29.23;;;15.77;;
7375;SDS011;3728;42.266;24.944;2024-01-06T01:49:38;28.50;;;14.90;;
7375;SDS011;3728;42.266;24.944;2024-01-06T01:52:05;18.83;;;12.23;;
7375;SDS011;3728;42.266;24.944;2024-01-06T01:54:33;16.73;;;11.70;;
7375;SDS011;3728;42.266;24.944;2024-01-06T01:57:01;18.87;;;11.67;;
7375;SDS011;3728;42.266;24.944;2024-01-06T01:59:29;15.17;;;10.63;;
7375;SDS011;3728;42.266;24.944;2024-01-06T02:01:57;17.37;;;10.03;;
7375;SDS011;3728;42.266;24.944;2024-01-06T02:04:27;15.97;;;8.40;;
7375;SDS011;3728;42.266;24.944;2024-01-06T02:06:54;12.83;;;9.07;;
7375;SDS011;3728;42.266;24.944;2024-01-06T02:09:22;15.63;;;9.67;;
7375;SDS011;3728;42.266;24.944;2024-01-06T02:11:53;17.00;;;10.93;;
7375;SDS011;3728;42.266;24.944;2024-01-06T02:14:20;19.80;;;12.90;;
7375;SDS011;3728;42.266;24.944;2024-01-06T02:16:47;16.53;;;11.13;;
7375;SDS011;3728;42.266;24.944;2024-01-06T02:19:15;15.17;;;9.63;;
7375;SDS011;3728;42.266;24.944;2024-01-06T02:21:51;16.17;;;10.50;;
7375;SDS011;3728;42.266;24.944;2024-01-06T02:24:20;12.90;;;9.03;;
7375;SDS011;3728;42.266;24.944;2024-01-06T02:26:48;12.50;;;9.10;;
7375;SDS011;3728;42.266;24.944;2024-01-06T02:29:17;12.10;;;8.43;;
7375;SDS011;3728;42.266;24.944;2024-01-06T02:31:44;20.23;;;13.83;;
7375;SDS011;3728;42.266;24.944;2024-01-06T02:34:11;50.57;;;37.20;;
7375;SDS011;3728;42.266;24.944;2024-01-06T02:36:39;44.60;;;30.73;;
7375;SDS011;3728;42.266;24.944;2024-01-06T02:39:06;44.97;;;35.53;;
7375;SDS011;3728;42.266;24.944;2024-01-06T02:41:33;28.63;;;24.67;;
7375;SDS011;3728;42.266;24.944;2024-01-06T02:44:00;26.80;;;19.53;;
7375;SDS011;3728;42.266;24.944;2024-01-06T02:46:29;36.00;;;22.17;;
7375;SDS011;3728;42.266;24.944;2024-01-06T02:48:56;26.60;;;17.47;;
7375;SDS011;3728;42.266;24.944;2024-01-06T02:51:23;19.90;;;11.70;;
7375;SDS011;3728;42.266;24.944;2024-01-06T02:53:51;18.07;;;11.50;;
7375;SDS011;3728;42.266;24.944;2024-01-06T02:56:18;15.80;;;11.00;;
7375;SDS011;3728;42.266;24.944;2024-01-06T02:58:45;15.13;;;10.83;;
7375;SDS011;3728;42.266;24.944;2024-01-06T03:01:12;14.93;;;9.80;;
7375;SDS011;3728;42.266;24.944;2024-01-06T03:03:40;15.80;;;9.70;;
7375;SDS011;3728;42.266;24.944;2024-01-06T03:06:07;15.87;;;9.60;;
7375;SDS011;3728;42.266;24.944;2024-01-06T03:08:34;14.67;;;9.37;;
7375;SDS011;3728;42.266;24.944;2024-01-06T03:11:02;15.30;;;8.87;;
7375;SDS011;3728;42.266;24.944;2024-01-06T03:13:31;16.70;;;11.13;;
7375;SDS011;3728;42.266;24.944;2024-01-06T03:18:31;14.57;;;9.10;;
7375;SDS011;3728;42.266;24.944;2024-01-06T03:20:59;22.67;;;11.20;;
7375;SDS011;3728;42.266;24.944;2024-01-06T03:23:26;19.20;;;9.90;;
7375;SDS011;3728;42.266;24.944;2024-01-06T03:25:53;17.87;;;11.27;;
7375;SDS011;3728;42.266;24.944;2024-01-06T03:28:20;17.93;;;10.60;;
7375;SDS011;3728;42.266;24.944;2024-01-06T03:30:47;16.10;;;10.33;;
7375;SDS011;3728;42.266;24.944;2024-01-06T03:33:15;17.70;;;10.67;;
7375;SDS011;3728;42.266;24.944;2024-01-06T03:35:42;16.63;;;10.20;;
7375;SDS011;3728;42.266;24.944;2024-01-06T03:38:09;25.20;;;10.03;;
7375;SDS011;3728;42.266;24.944;2024-01-06T03:40:36;22.23;;;10.40;;
7375;SDS011;3728;42.266;24.944;2024-01-06T03:43:03;17.70;;;10.70;;
7375;SDS011;3728;42.266;24.944;2024-01-06T03:45:31;21.70;;;10.40;;
7375;SDS011;3728;42.266;24.944;2024-01-06T03:47:58;16.53;;;9.80;;
7375;SDS011;3728;42.266;24.944;2024-01-06T03:50:25;16.33;;;10.47;;
7375;SDS011;3728;42.266;24.944;2024-01-06T03:52:52;19.97;;;10.43;;
7375;SDS011;3728;42.266;24.944;2024-01-06T03:55:19;17.60;;;10.67;;
7375;SDS011;3728;42.266;24.944;2024-01-06T03:57:47;17.93;;;10.27;;
7375;SDS011;3728;42.266;24.944;2024-01-06T04:00:14;18.13;;;11.40;;
7375;SDS011;3728;42.266;24.944;2024-01-06T04:02:42;19.80;;;10.90;;
7375;SDS011;3728;42.266;24.944;2024-01-06T04:05:10;22.10;;;17.90;;
7375;SDS011;3728;42.266;24.944;2024-01-06T04:07:37;20.53;;;16.07;;
7375;SDS011;3728;42.266;24.944;2024-01-06T04:10:04;16.30;;;10.97;;
7375;SDS011;3728;42.266;24.944;2024-01-06T04:12:32;16.80;;;12.20;;
7375;SDS011;3728;42.266;24.944;2024-01-06T04:14:59;16.60;;;10.13;;
7375;SDS011;3728;42.266;24.944;2024-01-06T04:17:26;21.53;;;12.57;;
7375;SDS011;3728;42.266;24.944;2024-01-06T04:19:53;16.40;;;10.97;;
7375;SDS011;3728;42.266;24.944;2024-01-06T04:22:21;16.80;;;13.70;;
7375;SDS011;3728;42.266;24.944;2024-01-06T04:24:48;19.27;;;11.97;;
7375;SDS011;3728;42.266;24.944;2024-01-06T04:27:16;14.70;;;9.77;;
7375;SDS011;3728;42.266;24.944;2024-01-06T04:29:43;10.60;;;8.50;;
7375;SDS011;3728;42.266;24.944;2024-01-06T04:32:10;10.80;;;7.57;;
7375;SDS011;3728;42.266;24.944;2024-01-06T04:34:37;9.27;;;7.33;;
7375;SDS011;3728;42.266;24.944;2024-01-06T04:37:05;12.87;;;7.13;;
7375;SDS011;3728;42.266;24.944;2024-01-06T04:39:32;12.10;;;7.47;;
7375;SDS011;3728;42.266;24.944;2024-01-06T04:42:03;12.13;;;7.77;;
7375;SDS011;3728;42.266;24.944;2024-01-06T04:44:31;12.20;;;8.80;;
7375;SDS011;3728;42.266;24.944;2024-01-06T04:46:58;16.07;;;9.77;;
7375;SDS011;3728;42.266;24.944;2024-01-06T04:49:26;12.63;;;9.57;;
7375;SDS011;3728;42.266;24.944;2024-01-06T04:51:53;15.07;;;9.87;;
7375;SDS011;3728;42.266;24.944;2024-01-06T04:54:20;15.53;;;9.80;;
7375;SDS011;3728;42.266;24.944;2024-01-06T04:56:47;20.20;;;12.33;;
7375;SDS011;3728;42.266;24.944;2024-01-06T04:59:14;20.73;;;14.03;;
7375;SDS011;3728;42.266;24.944;2024-01-06T05:01:41;26.50;;;15.53;;
7375;SDS011;3728;42.266;24.944;2024-01-06T05:04:09;22.03;;;13.17;;
7375;SDS011;3728;42.266;24.944;2024-01-06T05:06:36;29.73;;;16.73;;
7375;SDS011;3728;42.266;24.944;2024-01-06T05:09:03;27.67;;;18.43;;
7375;SDS011;3728;42.266;24.944;2024-01-06T05:11:30;28.27;;;16.50;;
7375;SDS011;3728;42.266;24.944;2024-01-06T05:13:57;34.10;;;20.43;;
7375;SDS011;3728;42.266;24.944;2024-01-06T05:16:24;28.97;;;18.83;;
7375;SDS011;3728;42.266;24.944;2024-01-06T05:18:51;68.00;;;32.80;;
7375;SDS011;3728;42.266;24.944;2024-01-06T05:21:19;59.17;;;28.30;;
7375;SDS011;3728;42.266;24.944;2024-01-06T05:23:47;28.07;;;16.63;;
7375;SDS011;3728;42.266;24.944;2024-01-06T05:26:14;29.47;;;13.77;;
7375;SDS011;3728;42.266;24.944;2024-01-06T05:28:41;26.93;;;14.00;;
7375;SDS011;3728;42.266;24.944;2024-01-06T05:31:08;23.10;;;11.33;;
7375;SDS011;3728;42.266;24.944;2024-01-06T05:33:35;26.90;;;16.13;;
7375;SDS011;3728;42.266;24.944;2024-01-06T05:36:03;31.80;;;18.60;;
7375;SDS011;3728;42.266;24.944;2024-01-06T05:38:30;25.30;;;14.57;;
7375;SDS011;3728;42.266;24.944;2024-01-06T05:40:58;30.37;;;19.90;;
7375;SDS011;3728;42.266;24.944;2024-01-06T05:43:25;32.93;;;19.97;;
7375;SDS011;3728;42.266;24.944;2024-01-06T05:45:52;31.60;;;14.90;;
7375;SDS011;3728;42.266;24.944;2024-01-06T05:48:19;35.17;;;20.90;;
7375;SDS011;3728;42.266;24.944;2024-01-06T05:50:47;38.97;;;24.37;;
7375;SDS011;3728;42.266;24.944;2024-01-06T05:53:15;51.87;;;30.53;;
7375;SDS011;3728;42.266;24.944;2024-01-06T05:55:44;46.77;;;28.87;;
7375;SDS011;3728;42.266;24.944;2024-01-06T05:58:12;65.27;;;42.07;;
7375;SDS011;3728;42.266;24.944;2024-01-06T06:00:39;91.97;;;62.00;;
7375;SDS011;3728;42.266;24.944;2024-01-06T06:03:06;94.90;;;59.20;;
7375;SDS011;3728;42.266;24.944;2024-01-06T06:05:34;94.00;;;61.33;;
7375;SDS011;3728;42.266;24.944;2024-01-06T06:08:01;80.37;;;49.57;;
7375;SDS011;3728;42.266;24.944;2024-01-06T06:10:29;80.47;;;49.23;;
7375;SDS011;3728;42.266;24.944;2024-01-06T06:13:07;81.60;;;49.70;;
7375;SDS011;3728;42.266;24.944;2024-01-06T06:15:37;83.50;;;49.13;;
7375;SDS011;3728;42.266;24.944;2024-01-06T06:18:04;94.60;;;53.60;;
7375;SDS011;3728;42.266;24.944;2024-01-06T06:20:32;101.83;;;52.70;;
7375;SDS011;3728;42.266;24.944;2024-01-06T06:22:59;111.90;;;56.27;;
7375;SDS011;3728;42.266;24.944;2024-01-06T06:25:26;100.43;;;52.33;;
7375;SDS011;3728;42.266;24.944;2024-01-06T06:27:53;93.47;;;54.37;;
7375;SDS011;3728;42.266;24.944;2024-01-06T06:30:20;93.83;;;50.93;;
7375;SDS011;3728;42.266;24.944;2024-01-06T06:32:48;81.87;;;47.83;;
7375;SDS011;3728;42.266;24.944;2024-01-06T06:35:15;85.13;;;46.50;;
7375;SDS011;3728;42.266;24.944;2024-01-06T06:37:42;80.77;;;47.83;;
7375;SDS011;3728;42.266;24.944;2024-01-06T06:40:09;82.20;;;44.23;;
7375;SDS011;3728;42.266;24.944;2024-01-06T06:42:37;91.87;;;41.50;;
7375;SDS011;3728;42.266;24.944;2024-01-06T06:45:04;74.40;;;36.27;;
7375;SDS011;3728;42.266;24.944;2024-01-06T06:47:32;33.90;;;21.10;;
7375;SDS011;3728;42.266;24.944;2024-01-06T06:49:59;14.00;;;10.80;;
7375;SDS011;3728;42.266;24.944;2024-01-06T06:52:26;13.60;;;10.03;;
7375;SDS011;3728;42.266;24.944;2024-01-06T06:54:54;17.67;;;9.00;;
7375;SDS011;3728;42.266;24.944;2024-01-06T06:57:21;14.63;;;8.80;;
7375;SDS011;3728;42.266;24.944;2024-01-06T06:59:49;14.70;;;9.27;;
7375;SDS011;3728;42.266;24.944;2024-01-06T07:02:17;14.60;;;9.30;;
7375;SDS011;3728;42.266;24.944;2024-01-06T07:04:44;12.90;;;9.77;;
7375;SDS011;3728;42.266;24.944;2024-01-06T07:07:11;17.40;;;10.70;;
7375;SDS011;3728;42.266;24.944;2024-01-06T07:09:40;12.63;;;9.10;;
7375;SDS011;3728;42.266;24.944;2024-01-06T07:12:07;17.50;;;9.07;;
7375;SDS011;3728;42.266;24.944;2024-01-06T07:14:35;15.57;;;8.90;;
7375;SDS011;3728;42.266;24.944;2024-01-06T07:17:03;21.17;;;7.67;;
7375;SDS011;3728;42.266;24.944;2024-01-06T07:19:31;13.27;;;6.50;;
7375;SDS011;3728;42.266;24.944;2024-01-06T07:21:59;12.30;;;6.60;;
7375;SDS011;3728;42.266;24.944;2024-01-06T07:24:33;10.53;;;6.70;;
7375;SDS011;3728;42.266;24.944;2024-01-06T07:27:03;7.73;;;5.90;;
7375;SDS011;3728;42.266;24.944;2024-01-06T07:29:30;13.63;;;6.23;;
7375;SDS011;3728;42.266;24.944;2024-01-06T07:31:59;11.23;;;7.57;;
7375;SDS011;3728;42.266;24.944;2024-01-06T07:34:26;40.70;;;15.07;;
7375;SDS011;3728;42.266;24.944;2024-01-06T07:36:54;17.67;;;9.40;;
7375;SDS011;3728;42.266;24.944;2024-01-06T07:39:22;15.70;;;7.87;;
7375;SDS011;3728;42.266;24.944;2024-01-06T07:41:52;40.97;;;20.07;;
7375;SDS011;3728;42.266;24.944;2024-01-06T07:44:19;37.10;;;17.10;;
7375;SDS011;3728;42.266;24.944;2024-01-06T07:46:52;30.67;;;17.33;;
7375;SDS011;3728;42.266;24.944;2024-01-06T07:49:19;62.97;;;35.80;;
7375;SDS011;3728;42.266;24.944;2024-01-06T07:51:47;61.23;;;31.23;;
7375;SDS011;3728;42.266;24.944;2024-01-06T07:54:15;35.17;;;17.83;;
7375;SDS011;3728;42.266;24.944;2024-01-06T07:56:42;35.23;;;16.60;;
7375;SDS011;3728;42.266;24.944;2024-01-06T07:59:10;28.80;;;12.80;;
7375;SDS011;3728;42.266;24.944;2024-01-06T08:01:38;17.47;;;8.33;;
7375;SDS011;3728;42.266;24.944;2024-01-06T08:04:06;28.20;;;11.10;;
7375;SDS011;3728;42.266;24.944;2024-01-06T08:06:36;25.60;;;10.83;;
7375;SDS011;3728;42.266;24.944;2024-01-06T08:09:05;18.83;;;10.60;;
7375;SDS011;3728;42.266;24.944;2024-01-06T08:11:33;13.87;;;10.10;;
7375;SDS011;3728;42.266;24.944;2024-01-06T08:14:01;19.23;;;9.40;;
7375;SDS011;3728;42.266;24.944;2024-01-06T08:16:29;12.40;;;8.77;;
7375;SDS011;3728;42.266;24.944;2024-01-06T08:18:56;15.10;;;9.70;;
7375;SDS011;3728;42.266;24.944;2024-01-06T08:21:24;13.50;;;9.17;;
7375;SDS011;3728;42.266;24.944;2024-01-06T08:24:02;21.77;;;9.90;;
7375;SDS011;3728;42.266;24.944;2024-01-06T08:26:31;18.47;;;9.33;;
7375;SDS011;3728;42.266;24.944;2024-01-06T08:29:03;20.90;;;11.57;;
7375;SDS011;3728;42.266;24.944;2024-01-06T08:31:34;20.77;;;13.30;;
7375;SDS011;3728;42.266;24.944;2024-01-06T08:34:03;25.23;;;13.67;;
7375;SDS011;3728;42.266;24.944;2024-01-06T08:36:41;134.23;;;60.07;;
7375;SDS011;3728;42.266;24.944;2024-01-06T08:39:13;61.80;;;36.47;;
7375;SDS011;3728;42.266;24.944;2024-01-06T08:41:42;52.57;;;30.47;;
7375;SDS011;3728;42.266;24.944;2024-01-06T08:44:10;35.93;;;23.33;;
7375;SDS011;3728;42.266;24.944;2024-01-06T08:46:38;27.90;;;19.40;;
7375;SDS011;3728;42.266;24.944;2024-01-06T08:49:15;31.93;;;21.73;;
7375;SDS011;3728;42.266;24.944;2024-01-06T08:51:48;34.03;;;20.63;;
7375;SDS011;3728;42.266;24.944;2024-01-06T08:54:16;24.57;;;17.03;;
7375;SDS011;3728;42.266;24.944;2024-01-06T08:56:58;19.97;;;14.00;;
7375;SDS011;3728;42.266;24.944;2024-01-06T08:59:28;20.07;;;14.67;;
7375;SDS011;3728;42.266;24.944;2024-01-06T09:01:56;19.63;;;14.33;;
7375;SDS011;3728;42.266;24.944;2024-01-06T09:04:23;18.87;;;13.07;;
7375;SDS011;3728;42.266;24.944;2024-01-06T09:06:53;22.63;;;14.70;;
7375;SDS011;3728;42.266;24.944;2024-01-06T09:09:21;19.57;;;13.03;;
7375;SDS011;3728;42.266;24.944;2024-01-06T09:11:50;24.23;;;14.80;;
7375;SDS011;3728;42.266;24.944;2024-01-06T09:14:17;22.13;;;13.67;;
7375;SDS011;3728;42.266;24.944;2024-01-06T09:16:46;23.87;;;16.57;;
7375;SDS011;3728;42.266;24.944;2024-01-06T09:19:14;24.93;;;16.97;;
7375;SDS011;3728;42.266;24.944;2024-01-06T09:21:43;27.37;;;20.50;;
7375;SDS011;3728;42.266;24.944;2024-01-06T09:24:11;26.23;;;16.77;;
7375;SDS011;3728;42.266;24.944;2024-01-06T09:26:39;27.03;;;20.07;;
7375;SDS011;3728;42.266;24.944;2024-01-06T09:29:06;29.10;;;19.97;;
7375;SDS011;3728;42.266;24.944;2024-01-06T09:31:33;26.37;;;18.50;;
7375;SDS011;3728;42.266;24.944;2024-01-06T09:34:01;24.90;;;17.47;;
7375;SDS011;3728;42.266;24.944;2024-01-06T09:36:32;38.23;;;22.97;;
7375;SDS011;3728;42.266;24.944;2024-01-06T09:38:59;48.23;;;23.00;;
7375;SDS011;3728;42.266;24.944;2024-01-06T09:41:27;25.20;;;18.10;;
7375;SDS011;3728;42.266;24.944;2024-01-06T09:43:54;48.87;;;24.60;;
7375;SDS011;3728;42.266;24.944;2024-01-06T09:46:24;70.00;;;31.63;;
7375;SDS011;3728;42.266;24.944;2024-01-06T09:48:53;30.47;;;19.33;;
7375;SDS011;3728;42.266;24.944;2024-01-06T09:51:23;51.87;;;27.93;;
7375;SDS011;3728;42.266;24.944;2024-01-06T09:53:57;82.43;;;41.93;;
7375;SDS011;3728;42.266;24.944;2024-01-06T09:56:27;41.20;;;27.37;;
7375;SDS011;3728;42.266;24.944;2024-01-06T09:58:56;44.07;;;25.70;;
7375;SDS011;3728;42.266;24.944;2024-01-06T10:01:23;35.63;;;23.57;;
7375;SDS011;3728;42.266;24.944;2024-01-06T10:03:53;34.30;;;20.07;;
7375;SDS011;3728;42.266;24.944;2024-01-06T10:06:22;25.60;;;17.50;;
7375;SDS011;3728;42.266;24.944;2024-01-06T10:08:50;24.43;;;15.73;;
7375;SDS011;3728;42.266;24.944;2024-01-06T10:11:19;28.10;;;17.70;;
7375;SDS011;3728;42.266;24.944;2024-01-06T10:13:49;28.33;;;14.63;;
7375;SDS011;3728;42.266;24.944;2024-01-06T10:16:18;22.40;;;14.10;;
7375;SDS011;3728;42.266;24.944;2024-01-06T10:18:48;26.27;;;17.17;;
7375;SDS011;3728;42.266;24.944;2024-01-06T10:21:21;91.00;;;33.20;;
7375;SDS011;3728;42.266;24.944;2024-01-06T10:23:55;66.60;;;28.23;;
7375;SDS011;3728;42.266;24.944;2024-01-06T10:26:24;17.10;;;10.47;;
7375;SDS011;3728;42.266;24.944;2024-01-06T10:28:54;19.17;;;11.33;;
7375;SDS011;3728;42.266;24.944;2024-01-06T10:31:26;28.97;;;19.17;;
7375;SDS011;3728;42.266;24.944;2024-01-06T10:33:54;32.60;;;22.73;;
7375;SDS011;3728;42.266;24.944;2024-01-06T10:36:25;15.67;;;11.03;;
7375;SDS011;3728;42.266;24.944;2024-01-06T10:38:54;22.33;;;12.90;;
7375;SDS011;3728;42.266;24.944;2024-01-06T10:41:27;14.93;;;10.50;;
7375;SDS011;3728;42.266;24.944;2024-01-06T10:43:59;14.33;;;11.60;;
7375;SDS011;3728;42.266;24.944;2024-01-06T10:46:28;14.93;;;10.83;;
7375;SDS011;3728;42.266;24.944;2024-01-06T10:48:58;18.47;;;10.80;;
7375;SDS011;3728;42.266;24.944;2024-01-06T10:51:28;23.13;;;12.77;;
7375;SDS011;3728;42.266;24.944;2024-01-06T10:53:57;24.90;;;13.33;;
7375;SDS011;3728;42.266;24.944;2024-01-06T10:56:29;28.23;;;16.23;;
7375;SDS011;3728;42.266;24.944;2024-01-06T10:58:58;25.60;;;14.57;;
7375;SDS011;3728;42.266;24.944;2024-01-06T11:01:30;15.57;;;10.73;;
7375;SDS011;3728;42.266;24.944;2024-01-06T11:04:00;16.77;;;10.53;;
7375;SDS011;3728;42.266;24.944;2024-01-06T11:06:31;17.67;;;11.47;;
7375;SDS011;3728;42.266;24.944;2024-01-06T11:11:49;19.43;;;9.97;;
7375;SDS011;3728;42.266;24.944;2024-01-06T11:14:26;19.43;;;10.00;;
7375;SDS011;3728;42.266;24.944;2024-01-06T11:16:56;17.67;;;9.87;;
7375;SDS011;3728;42.266;24.944;2024-01-06T11:22:23;12.57;;;9.67;;
7375;SDS011;3728;42.266;24.944;2024-01-06T11:25:08;15.17;;;10.90;;
7375;SDS011;3728;42.266;24.944;2024-01-06T11:27:44;14.50;;;10.60;;
7375;SDS011;3728;42.266;24.944;2024-01-06T11:30:19;13.07;;;10.03;;
7375;SDS011;3728;42.266;24.944;2024-01-06T11:32:52;13.07;;;9.83;;
7375;SDS011;3728;42.266;24.944;2024-01-06T11:35:26;16.30;;;10.30;;
7375;SDS011;3728;42.266;24.944;2024-01-06T11:37:55;38.07;;;12.07;;
7375;SDS011;3728;42.266;24.944;2024-01-06T11:40:26;20.80;;;10.00;;
7375;SDS011;3728;42.266;24.944;2024-01-06T11:43:09;19.17;;;10.20;;
7375;SDS011;3728;42.266;24.944;2024-01-06T11:45:41;13.17;;;10.43;;
7375;SDS011;3728;42.266;24.944;2024-01-06T11:48:10;14.93;;;10.53;;
7375;SDS011;3728;42.266;24.944;2024-01-06T11:50:40;16.80;;;10.43;;
7375;SDS011;3728;42.266;24.944;2024-01-06T11:53:10;17.53;;;11.40;;
7375;SDS011;3728;42.266;24.944;2024-01-06T11:55:40;18.27;;;11.27;;
7375;SDS011;3728;42.266;24.944;2024-01-06T11:58:09;17.03;;;10.47;;
7375;SDS011;3728;42.266;24.944;2024-01-06T12:00:41;16.60;;;10.77;;
7375;SDS011;3728;42.266;24.944;2024-01-06T12:03:10;15.83;;;10.90;;
7375;SDS011;3728;42.266;24.944;2024-01-06T12:05:39;23.50;;;11.80;;
7375;SDS011;3728;42.266;24.944;2024-01-06T12:08:06;17.00;;;11.83;;
7375;SDS011;3728;42.266;24.944;2024-01-06T12:10:35;19.37;;;12.40;;
7375;SDS011;3728;42.266;24.944;2024-01-06T12:13:06;17.33;;;11.90;;
7375;SDS011;3728;42.266;24.944;2024-01-06T12:15:39;18.53;;;14.27;;
7375;SDS011;3728;42.266;24.944;2024-01-06T12:18:08;15.97;;;11.73;;
7375;SDS011;3728;42.266;24.944;2024-01-06T12:20:36;16.17;;;12.97;;
7375;SDS011;3728;42.266;24.944;2024-01-06T12:23:05;21.00;;;15.27;;
7375;SDS011;3728;42.266;24.944;2024-01-06T12:25:36;20.10;;;13.33;;
7375;SDS011;3728;42.266;24.944;2024-01-06T12:28:07;37.13;;;24.93;;
7375;SDS011;3728;42.266;24.944;2024-01-06T12:30:35;21.07;;;13.73;;
7375;SDS011;3728;42.266;24.944;2024-01-06T12:33:06;114.57;;;43.93;;
7375;SDS011;3728;42.266;24.944;2024-01-06T12:35:34;448.70;;;213.13;;
7375;SDS011;3728;42.266;24.944;2024-01-06T12:38:02;372.07;;;158.80;;
7375;SDS011;3728;42.266;24.944;2024-01-06T12:40:35;341.07;;;168.53;;
7375;SDS011;3728;42.266;24.944;2024-01-06T12:43:06;37.33;;;22.40;;
7375;SDS011;3728;42.266;24.944;2024-01-06T12:45:33;111.20;;;58.67;;
7375;SDS011;3728;42.266;24.944;2024-01-06T12:48:01;38.07;;;23.93;;
7375;SDS011;3728;42.266;24.944;2024-01-06T12:50:28;52.57;;;33.30;;
7375;SDS011;3728;42.266;24.944;2024-01-06T12:52:56;31.53;;;21.40;;
7375;SDS011;3728;42.266;24.944;2024-01-06T12:55:24;20.57;;;15.77;;
7375;SDS011;3728;42.266;24.944;2024-01-06T12:57:51;18.90;;;13.40;;
7375;SDS011;3728;42.266;24.944;2024-01-06T13:00:18;17.37;;;12.97;;
7375;SDS011;3728;42.266;24.944;2024-01-06T13:02:46;18.90;;;13.93;;
7375;SDS011;3728;42.266;24.944;2024-01-06T13:05:18;26.03;;;14.43;;
7375;SDS011;3728;42.266;24.944;2024-01-06T13:07:46;20.73;;;13.43;;
7375;SDS011;3728;42.266;24.944;2024-01-06T13:10:14;16.83;;;12.80;;
7375;SDS011;3728;42.266;24.944;2024-01-06T13:12:41;16.50;;;12.80;;
7375;SDS011;3728;42.266;24.944;2024-01-06T13:15:08;40.67;;;14.90;;
7375;SDS011;3728;42.266;24.944;2024-01-06T13:17:38;20.80;;;13.93;;
7375;SDS011;3728;42.266;24.944;2024-01-06T13:20:06;19.80;;;13.50;;
7375;SDS011;3728;42.266;24.944;2024-01-06T13:22:37;29.57;;;14.60;;
7375;SDS011;3728;42.266;24.944;2024-01-06T13:25:07;20.30;;;15.17;;
7375;SDS011;3728;42.266;24.944;2024-01-06T13:27:35;18.60;;;14.70;;
7375;SDS011;3728;42.266;24.944;2024-01-06T13:30:03;24.13;;;17.77;;
7375;SDS011;3728;42.266;24.944;2024-01-06T13:32:31;19.50;;;14.17;;
7375;SDS011;3728;42.266;24.944;2024-01-06T13:34:58;20.77;;;14.60;;
7375;SDS011;3728;42.266;24.944;2024-01-06T13:37:31;16.30;;;12.10;;
7375;SDS011;3728;42.266;24.944;2024-01-06T13:39:59;15.37;;;11.10;;
7375;SDS011;3728;42.266;24.944;2024-01-06T13:42:27;16.87;;;12.17;;
7375;SDS011;3728;42.266;24.944;2024-01-06T13:44:57;14.70;;;11.57;;
7375;SDS011;3728;42.266;24.944;2024-01-06T13:47:30;13.97;;;10.90;;
7375;SDS011;3728;42.266;24.944;2024-01-06T13:49:58;13.60;;;10.03;;
7375;SDS011;3728;42.266;24.944;2024-01-06T13:52:25;14.17;;;10.07;;
7375;SDS011;3728;42.266;24.944;2024-01-06T13:54:57;13.10;;;10.60;;
7375;SDS011;3728;42.266;24.944;2024-01-06T13:57:25;16.83;;;11.30;;
7375;SDS011;3728;42.266;24.944;2024-01-06T13:59:55;18.87;;;11.83;;
7375;SDS011;3728;42.266;24.944;2024-01-06T14:02:25;14.97;;;10.87;;
7375;SDS011;3728;42.266;24.944;2024-01-06T14:04:53;16.70;;;10.77;;
7375;SDS011;3728;42.266;24.944;2024-01-06T14:07:21;22.53;;;15.00;;
7375;SDS011;3728;42.266;24.944;2024-01-06T14:09:51;24.70;;;15.47;;
7375;SDS011;3728;42.266;24.944;2024-01-06T14:12:20;27.87;;;16.97;;
7375;SDS011;3728;42.266;24.944;2024-01-06T14:14:49;31.03;;;17.93;;
7375;SDS011;3728;42.266;24.944;2024-01-06T14:17:16;27.77;;;18.30;;
7375;SDS011;3728;42.266;24.944;2024-01-06T14:19:44;20.23;;;16.00;;
7375;SDS011;3728;42.266;24.944;2024-01-06T14:22:14;24.20;;;17.60;;
7375;SDS011;3728;42.266;24.944;2024-01-06T14:24:45;23.83;;;17.33;;
7375;SDS011;3728;42.266;24.944;2024-01-06T14:27:13;20.87;;;17.27;;
7375;SDS011;3728;42.266;24.944;2024-01-06T14:29:42;30.70;;;23.47;;
7375;SDS011;3728;42.266;24.944;2024-01-06T14:32:17;147.40;;;67.50;;
7375;SDS011;3728;42.266;24.944;2024-01-06T14:34:48;113.73;;;55.43;;
7375;SDS011;3728;42.266;24.944;2024-01-06T14:37:18;163.13;;;79.83;;
7375;SDS011;3728;42.266;24.944;2024-01-06T14:39:48;108.90;;;64.83;;
7375;SDS011;3728;42.266;24.944;2024-01-06T14:42:23;69.77;;;46.70;;
7375;SDS011;3728;42.266;24.944;2024-01-06T14:44:50;43.90;;;28.70;;
7375;SDS011;3728;42.266;24.944;2024-01-06T14:47:18;43.50;;;25.83;;
7375;SDS011;3728;42.266;24.944;2024-01-06T14:49:47;32.03;;;21.93;;
7375;SDS011;3728;42.266;24.944;2024-01-06T14:52:19;38.13;;;28.23;;